Weather observations for the past three days for
Yap Island - Yap Int. Airport
Metric (Imperial)
Date Time (+10) Wind (kph) Vis. (km) Weather Sky Cond. Temperature (ºC) Relative Humidity Wind Chill (°C) Heat Index (°C) Pressure Precipitation (cm)
Air Dwpt 6 hour altimeter (cm) sea level (mb) 1 hr 3 hr 6 hr
Max. Min.
04 16:51 NE 22 G 41 19.31 Mostly Cloudy SCT016CB BKN300 27.3 26.7 97% 32 75.54 1007.1
04 15:53 E 19 19.31 Overcast SCT016CB OVC300 29.5 27.9 31.3 29.5 91% 39 75.54 1007.1 0.03
04 14:52 E 17 G 28 19.31 Overcast SCT016CB OVC300 29.6 27.4 88% 39 75.57 1007.4
04 13:53 E 30 G 41 19.31 Mostly Cloudy SCT016 BKN300 31.3 26.4 75% 40 75.59 1007.8
04 12:50 E 24 G 35 19.31 Mostly Cloudy SCT016TCU BKN300 31 26.8 78% 40 75.64 1008.4
04 11:51 E 24 G 39 19.31 Mostly Cloudy SCT016TCU BKN300 30.5 26.8 81% 39 75.69 1009.1
04 10:55 E 24 G 41 19.31 Mostly Cloudy FEW016 SCT130 BKN300 30.6 26.7 80% 39 75.72 1009.5
04 09:53 E 19 G 37 19.31 Mostly Cloudy FEW016 SCT130 BKN300 30.2 26.6 30.2 26.6 81% 39 75.72 1009.6
04 08:51 E 15 19.31 Mostly Cloudy FEW016 SCT130 BKN300 28.8 26.7 88% 36 75.72 1009.5
04 06:56 Vrbl 7 19.31 Mostly Cloudy FEW016 BKN130 BKN300 27.1 26.3 95% 32 75.62 1008.3
04 04:59 Vrbl 11 19.31 Overcast SCT016CB BKN130 OVC300 26.6 26.1 97% 30 75.59 1007.8
04 03:57 Vrbl 11 19.31 Overcast SCT016CB OVC120 26.8 26.2 26.9 26 97% 31 75.59 1007.9 0.03
04 02:55 E 19 19.31 Overcast SCT016CB OVC120 26.8 26.3 97% 31 75.59 1007.9
04 01:51 Vrbl 9 19.31 Overcast SCT016CB OVC120 26.9 26.3 97% 31 75.64 1008.4
04 00:54 Vrbl 11 19.31 Overcast SCT016CB OVC120 26.5 25.8 96% 30 75.67 1008.8 0.03
03 23:50 Vrbl 11 19.31 Overcast SCT016CB OVC120 26.8 26.4 98% 31 75.69 1009.3
03 22:51 NE 15 19.31 Overcast SCT016CB OVC120 26.3 26 98% 29 75.69 1009.1
03 21:51 E 19 19.31 Overcast SCT016CB OVC120 26.2 25.9 26.6 25.6 98% 29 75.69 1009.3 1.47
03 20:50 E 15 G 28 16.09 Light Showers Rain SCT016CB OVC120 25.6 25.3 98% 27 75.69 1009.1
03 19:52 E 15 G 33 16.09 Light Showers Rain SCT016CB OVC120 25.8 25.6 99% 28 75.67 1008.8
03 18:51 NE 13 19.31 Overcast SCT016CB OVC120 26.6 26.1 97% 30 75.62 1008.3 0.41
03 17:50 NE 15 17.70 Light Showers Rain SCT016CB OVC120 26.5 26.1 98% 30 75.57 1007.6
03 16:52 Vrbl 11 16.09 Light Showers Rain SCT016CB OVC120 26.6 26 97% 30 75.54 1007.3
03 15:51 Vrbl 11 9.66 Showers Rain SCT016CB OVC120 25.9 25.2 27.9 25.9 96% 28 75.59 1007.8 2.39
03 14:50 NE 22 G 30 16.09 Light Showers Rain SCT016CB SCT035 OVC120 26.4 25.6 95% 29 75.62 1008.3
03 13:50 NE 13 17.70 Light Rain SCT016CB OVC120 26.1 25.4 96% 29 75.67 1008.8
03 12:54 E 19 G 30 19.31 Overcast SCT016CB OVC130 26.6 26 97% 30 75.69 1009.1 1.27
03 11:53 Vrbl 11 19.31 Overcast SCT016CB BKN130 OVC300 27.9 26.7 93% 34 75.69 1009.3
03 10:52 Vrbl 9 19.31 Thunderstorm SCT016CB OVC120 26.2 25.5 96% 29 75.72 1009.5
03 09:53 N 15 16.09 Light Showers Rain SCT016CB BKN130 OVC300 26.7 26.2 26.7 25.6 97% 31 75.74 1009.8 0.33
03 08:50 E 15 19.31 Overcast SCT016CB BKN130 OVC300 26.3 25.9 98% 29 75.72 1009.5
03 07:54 NE 15 19.31 Overcast SCT016CB BKN130 OVC300 26.3 25.5 95% 29 75.67 1008.8
03 06:58 Vrbl 7 19.31 Overcast SCT016CB BKN130 OVC300 25.6 25.2 98% 27 75.62 1008.3 0.23
03 05:53 Vrbl 11 19.31 Mostly Cloudy FEW016 BKN300 25.7 25 96% 27 75.57 1007.6
03 04:52 Vrbl 6 19.31 Mostly Cloudy FEW016 BKN300 25.7 25.1 97% 27 75.59 1007.9
03 03:53 Vrbl 9 19.31 Mostly Cloudy FEW016 BKN300 26.1 25.9 28 25.8 99% 29 75.59 1007.9 0.08
03 02:54 Vrbl 4 19.31 Overcast SCT016TCU OVC300 25.8 25.4 98% 28 75.64 1008.6
03 01:51 Vrbl 6 19.31 Overcast SCT016TCU OVC300 26.3 26 98% 29 75.67 1009.0
03 00:55 Vrbl 6 19.31 Partly Cloudy FEW016 SCT300 26.6 25.7 95% 30 75.72 1009.5
02 23:50 Vrbl 7 19.31 Partly Cloudy FEW016 SCT300 26.4 26.1 98% 30 75.74 1010.0
02 22:50 Vrbl 7 19.31 Partly Cloudy FEW017 SCT300 26.6 26.2 98% 30 75.77 1010.3
02 21:50 Vrbl 9 19.31 Partly Cloudy FEW017 SCT300 27.5 25.8 30.9 27.5 90% 32 75.74 1009.8
02 20:50 Vrbl 9 19.31 Partly Cloudy FEW017 SCT300 27.7 25.8 89% 33 75.69 1009.3
02 19:52 Vrbl 9 19.31 A Few Clouds FEW017 FEW300 27.6 25.7 89% 32 75.64 1008.6
02 18:52 Vrbl 9 19.31 Partly Cloudy FEW017 SCT300 28.3 25.7 86% 34 75.59 1007.9
02 17:50 E 19 19.31 Partly Cloudy FEW017 SCT300 29.7 25.2 77% 36 75.57 1007.6
02 16:51 NE 20 19.31 Partly Cloudy FEW018 SCT300 30.2 25.3 75% 37 75.54 1007.3
02 15:52 E 19 G 31 19.31 Partly Cloudy FEW019 SCT300 30.9 25.2 31.1 29.8 72% 38 75.54 1007.3
02 14:50 NE 20 G 37 19.31 Partly Cloudy FEW019 SCT300 31 24.9 70% 38 75.59 1007.8
02 13:51 NE 22 19.31 Partly Cloudy FEW019 SCT300 31.1 24.6 68% 37 75.64 1008.4
02 12:55 E 19 19.31 Partly Cloudy FEW018 SCT300 30.8 25.2 72% 38 75.69 1009.3
02 11:51 E 17 19.31 Partly Cloudy FEW018 SCT300 31 25.5 73% 38 75.74 1009.8
02 09:55 E 24 19.31 Partly Cloudy FEW017 SCT300 29.8 25.4 29.8 26.2 77% 36 75.74 1010.0
02 08:52 NE 20 19.31 Mostly Cloudy FEW016 BKN300 28.2 25.5 85% 34 75.74 1010.0
02 06:54 Vrbl 9 19.31 Mostly Cloudy FEW016 BKN300 26.2 25.3 95% 29 75.72 1009.5
02 05:58 Vrbl 11 19.31 Mostly Cloudy FEW016 BKN300 26.7 25.4 93% 30 75.74 1009.8
02 03:52 Vrbl 9 19.31 Mostly Cloudy FEW016 BKN300 26.6 25.4 27.4 25.6 93% 30 75.74 1009.8 0.18
02 01:50 Vrbl 7 19.31 Mostly Cloudy FEW016 BKN300 26 25.9 99% 28 75.74 1010.0
02 00:55 Vrbl 7 19.31 Mostly Cloudy SCT016CB SCT130 BKN300 25.6 25.5 99% 27 75.74 1010.0 0.18
01 23:54 Vrbl 11 19.31 Partly Cloudy FEW016TCU SCT300 27.1 26 94% 31 75.79 1010.5
01 22:52 E 13 19.31 Partly Cloudy FEW016 SCT300 27.4 26.1 93% 32 75.79 1010.7
01 21:50 Vrbl 9 19.31 Partly Cloudy FEW016 SCT300 27.3 26.2 29.1 27.3 94% 32 75.77 1010.1
01 20:55 Vrbl 11 19.31 Partly Cloudy FEW016 SCT300 27.4 26.1 93% 32 75.72 1009.6
01 19:55 E 13 19.31 Mostly Cloudy FEW016 BKN300 27.6 26.3 93% 33 75.69 1009.3
01 18:55 E 17 19.31 Mostly Cloudy FEW016 BKN300 27.9 26.2 91% 34 75.64 1008.6
Date Time (+10) Wind (kph) Vis. (km) Weather Sky Cond. Air Dwpt Max. Min. Relative Humidity Wind Chill (°C) Heat Index (°C) altimeter (cm) sea level (mb) 1 hr 3 hr 6 hr
6 hour
Temperature (ºC) Pressure Precipitation (cm)